sensor_id;sensor_type;location;lat;lon;timestamp;P1;P2;P0
74434;PMS7003;62867;52.038;29.256;2023-02-01T00:01:41;8.4;6.6;3.2
74434;PMS7003;62867;52.038;29.256;2023-02-01T00:06:21;6;4.8;3
74434;PMS7003;62867;52.038;29.256;2023-02-01T00:11:19;10.6;7.4;3.6
74434;PMS7003;62867;52.038;29.256;2023-02-01T00:16:33;7.8;6.4;3
74434;PMS7003;62867;52.038;29.256;2023-02-01T00:21:57;9;7;4
74434;PMS7003;62867;52.038;29.256;2023-02-01T00:26:20;8.4;6;3.2
74434;PMS7003;62867;52.038;29.256;2023-02-01T00:31:41;11.4;6.2;3
74434;PMS7003;62867;52.038;29.256;2023-02-01T00:36:45;9.6;7.2;3.4
74434;PMS7003;62867;52.038;29.256;2023-02-01T00:41:10;8;6.2;3.2
74434;PMS7003;62867;52.038;29.256;2023-02-01T00:46:19;7;6.6;3.6
74434;PMS7003;62867;52.038;29.256;2023-02-01T00:51:10;8.6;6.4;3.2
74434;PMS7003;62867;52.038;29.256;2023-02-01T00:56:55;9.2;5.2;2.8
74434;PMS7003;62867;52.038;29.256;2023-02-01T01:01:55;8.6;6.2;3
74434;PMS7003;62867;52.038;29.256;2023-02-01T01:06:33;7.8;5.8;2.8
74434;PMS7003;62867;52.038;29.256;2023-02-01T01:11:57;8.2;5.4;2.8
74434;PMS7003;62867;52.038;29.256;2023-02-01T01:16:59;7.4;5;2.8
74434;PMS7003;62867;52.038;29.256;2023-02-01T01:21:33;9.5;5.5;2.8
74434;PMS7003;62867;52.038;29.256;2023-02-01T01:26:35;8.4;6.2;3.4
74434;PMS7003;62867;52.038;29.256;2023-02-01T01:31:57;8.6;6.2;3
74434;PMS7003;62867;52.038;29.256;2023-02-01T01:36:09;8;6.8;3.2
74434;PMS7003;62867;52.038;29.256;2023-02-01T01:41:24;9.2;6.8;3.4
74434;PMS7003;62867;52.038;29.256;2023-02-01T01:46:22;7.6;6;4
74434;PMS7003;62867;52.038;29.256;2023-02-01T01:51:46;9.6;6.2;3.4
74434;PMS7003;62867;52.038;29.256;2023-02-01T01:56:45;9.2;7.6;3.6
74434;PMS7003;62867;52.038;29.256;2023-02-01T02:01:31;9;7.8;3.6
74434;PMS7003;62867;52.038;29.256;2023-02-01T02:06:58;9.6;6.2;3.2
74434;PMS7003;62867;52.038;29.256;2023-02-01T02:11:33;10;8.2;3.6
74434;PMS7003;62867;52.038;29.256;2023-02-01T02:16:52;8.4;6.8;3.2
74434;PMS7003;62867;52.038;29.256;2023-02-01T02:21:10;10.8;7;3.3
74434;PMS7003;62867;52.038;29.256;2023-02-01T02:26:48;11.2;7.4;4
74434;PMS7003;62867;52.038;29.256;2023-02-01T02:31:40;11;7.2;3.6
74434;PMS7003;62867;52.038;29.256;2023-02-01T02:36:37;8;6.6;3.4
74434;PMS7003;62867;52.038;29.256;2023-02-01T02:41:38;9.6;6.8;3.2
74434;PMS7003;62867;52.038;29.256;2023-02-01T02:46:20;9;6.6;3.6
74434;PMS7003;62867;52.038;29.256;2023-02-01T02:51:45;12;8.4;5
74434;PMS7003;62867;52.038;29.256;2023-02-01T02:56:33;12.2;10.4;5.4
74434;PMS7003;62867;52.038;29.256;2023-02-01T03:01:55;13.2;9.8;6.2
74434;PMS7003;62867;52.038;29.256;2023-02-01T03:06:33;13.6;10.8;6.4
74434;PMS7003;62867;52.038;29.256;2023-02-01T03:11:58;15.8;11.8;6.2
74434;PMS7003;62867;52.038;29.256;2023-02-01T03:16:10;13.2;11.2;7.2
74434;PMS7003;62867;52.038;29.256;2023-02-01T03:21:48;19.5;13.8;7.8
74434;PMS7003;62867;52.038;29.256;2023-02-01T03:26:31;18.8;13.4;8.2
74434;PMS7003;62867;52.038;29.256;2023-02-01T03:31:23;19.8;13.4;7.8
74434;PMS7003;62867;52.038;29.256;2023-02-01T03:36:58;13.4;9.6;5.2
74434;PMS7003;62867;52.038;29.256;2023-02-01T03:41:43;16.2;11.2;6.4
74434;PMS7003;62867;52.038;29.256;2023-02-01T03:46:58;15.8;10.6;6.2
74434;PMS7003;62867;52.038;29.256;2023-02-01T03:51:33;13.6;11;6.6
74434;PMS7003;62867;52.038;29.256;2023-02-01T03:56:40;16.2;11.2;6.6
74434;PMS7003;62867;52.038;29.256;2023-02-01T04:01:37;17.8;13.6;6.8
74434;PMS7003;62867;52.038;29.256;2023-02-01T04:06:45;16.6;12.4;7
74434;PMS7003;62867;52.038;29.256;2023-02-01T04:11:19;17.8;13;7.2
74434;PMS7003;62867;52.038;29.256;2023-02-01T04:16:45;17.6;11.8;6.8
74434;PMS7003;62867;52.038;29.256;2023-02-01T04:21:35;19.5;14;8.5
74434;PMS7003;62867;52.038;29.256;2023-02-01T04:26:45;22;17.2;9.8
74434;PMS7003;62867;52.038;29.256;2023-02-01T04:31:53;24.6;18.6;10.8
74434;PMS7003;62867;52.038;29.256;2023-02-01T04:36:57;26;20;11.2
74434;PMS7003;62867;52.038;29.256;2023-02-01T04:41:55;25.6;19.8;10.8
74434;PMS7003;62867;52.038;29.256;2023-02-01T04:46:43;27.4;20.6;11.6
74434;PMS7003;62867;52.038;29.256;2023-02-01T04:51:57;31.8;22;11.2
74434;PMS7003;62867;52.038;29.256;2023-02-01T04:56:21;24.2;18.2;10.8
74434;PMS7003;62867;52.038;29.256;2023-02-01T05:01:43;27;20.2;10.2
74434;PMS7003;62867;52.038;29.256;2023-02-01T05:06:19;19.2;14.6;8
74434;PMS7003;62867;52.038;29.256;2023-02-01T05:11:45;21.2;16.8;9
74434;PMS7003;62867;52.038;29.256;2023-02-01T05:16:35;25;20.4;11.6
74434;PMS7003;62867;52.038;29.256;2023-02-01T05:22:01;53.6;40;19.8
74434;PMS7003;62867;52.038;29.256;2023-02-01T05:26:09;71.8;49.5;24.5
74434;PMS7003;62867;52.038;29.256;2023-02-01T05:31:53;61.6;42.8;22.4
74434;PMS7003;62867;52.038;29.256;2023-02-01T05:36:45;40.4;29;16.4
74434;PMS7003;62867;52.038;29.256;2023-02-01T05:41:37;43.6;32.4;17.8
74434;PMS7003;62867;52.038;29.256;2023-02-01T05:46:59;24.8;19.4;10.8
74434;PMS7003;62867;52.038;29.256;2023-02-01T05:51:09;22.8;17.6;10.6
74434;PMS7003;62867;52.038;29.256;2023-02-01T05:56:59;30.4;21.6;12
74434;PMS7003;62867;52.038;29.256;2023-02-01T06:01:21;23.4;18.4;10.8
74434;PMS7003;62867;52.038;29.256;2023-02-01T06:06:21;22.8;17.2;10.4
74434;PMS7003;62867;52.038;29.256;2023-02-01T06:11:09;24;17.8;10.4
74434;PMS7003;62867;52.038;29.256;2023-02-01T06:16:57;24.2;19.2;10.8
74434;PMS7003;62867;52.038;29.256;2023-02-01T06:21:21;22.2;16.4;9.6
74434;PMS7003;62867;52.038;29.256;2023-02-01T06:26:57;21.8;16;9
74434;PMS7003;62867;52.038;29.256;2023-02-01T06:31:33;20.4;14.4;8.4
74434;PMS7003;62867;52.038;29.256;2023-02-01T06:36:09;19.4;13.4;8
74434;PMS7003;62867;52.038;29.256;2023-02-01T06:41:33;22;15.2;9.4
74434;PMS7003;62867;52.038;29.256;2023-02-01T06:46:35;21.4;16.6;9.8
74434;PMS7003;62867;52.038;29.256;2023-02-01T06:51:43;24.8;18.8;10.4
74434;PMS7003;62867;52.038;29.256;2023-02-01T06:56:09;25.2;18.4;10
74434;PMS7003;62867;52.038;29.256;2023-02-01T07:01:09;26.8;18.6;10
74434;PMS7003;62867;52.038;29.256;2023-02-01T07:06:09;24;19.2;11.6
74434;PMS7003;62867;52.038;29.256;2023-02-01T07:11:59;25.2;17.8;10.8
74434;PMS7003;62867;52.038;29.256;2023-02-01T07:16:35;27.2;20.4;11
74434;PMS7003;62867;52.038;29.256;2023-02-01T07:21:35;31.6;25.4;14
74434;PMS7003;62867;52.038;29.256;2023-02-01T07:26:33;30.5;24.5;13
74434;PMS7003;62867;52.038;29.256;2023-02-01T07:31:25;31.6;24.4;13
74434;PMS7003;62867;52.038;29.256;2023-02-01T07:36:37;27.6;21.4;11.6
74434;PMS7003;62867;52.038;29.256;2023-02-01T07:41:25;28.4;21.8;13.2
74434;PMS7003;62867;52.038;29.256;2023-02-01T07:47:03;30.6;22.6;12.6
74434;PMS7003;62867;52.038;29.256;2023-02-01T07:51:59;23.4;19;10.2
74434;PMS7003;62867;52.038;29.256;2023-02-01T07:56:35;25;20.6;10.6
74434;PMS7003;62867;52.038;29.256;2023-02-01T08:01:57;25.4;17.6;10.4
74434;PMS7003;62867;52.038;29.256;2023-02-01T08:06:57;27.8;19.6;10.2
74434;PMS7003;62867;52.038;29.256;2023-02-01T08:11:33;23.2;18;10.8
74434;PMS7003;62867;52.038;29.256;2023-02-01T08:16:25;28.6;22;12
74434;PMS7003;62867;52.038;29.256;2023-02-01T08:22:01;26.6;19.4;11
74434;PMS7003;62867;52.038;29.256;2023-02-01T08:26:24;24.8;17.3;10
74434;PMS7003;62867;52.038;29.256;2023-02-01T08:31:37;24;17.8;10.2
74434;PMS7003;62867;52.038;29.256;2023-02-01T08:36:47;32.4;21.2;11.8
74434;PMS7003;62867;52.038;29.256;2023-02-01T08:41:45;25.6;21.4;12
74434;PMS7003;62867;52.038;29.256;2023-02-01T08:46:49;31.4;22.4;12
74434;PMS7003;62867;52.038;29.256;2023-02-01T08:51:20;29;22.4;11.8
74434;PMS7003;62867;52.038;29.256;2023-02-01T08:56:25;26.8;19.8;11.8
74434;PMS7003;62867;52.038;29.256;2023-02-01T09:01:10;25.8;17.8;10.2
74434;PMS7003;62867;52.038;29.256;2023-02-01T09:06:49;27;21.4;12.4
74434;PMS7003;62867;52.038;29.256;2023-02-01T09:11:11;32.2;24;13
74434;PMS7003;62867;52.038;29.256;2023-02-01T09:16:45;29.2;22;12.6
74434;PMS7003;62867;52.038;29.256;2023-02-01T09:21:09;32;23.2;13.6
74434;PMS7003;62867;52.038;29.256;2023-02-01T09:26:57;42;32;15.8
74434;PMS7003;62867;52.038;29.256;2023-02-01T09:31:43;32.4;25.4;14.4
74434;PMS7003;62867;52.038;29.256;2023-02-01T09:36:57;33.6;24.2;13.6
74434;PMS7003;62867;52.038;29.256;2023-02-01T09:42:01;32;23.2;13
74434;PMS7003;62867;52.038;29.256;2023-02-01T09:46:33;31.4;24.4;13.4
74434;PMS7003;62867;52.038;29.256;2023-02-01T09:52:00;31.4;21.8;12.8
74434;PMS7003;62867;52.038;29.256;2023-02-01T09:56:10;27.6;22;12.2
74434;PMS7003;62867;52.038;29.256;2023-02-01T10:01:43;26.8;21;12
74434;PMS7003;62867;52.038;29.256;2023-02-01T10:06:13;30;21.2;10.4
74434;PMS7003;62867;52.038;29.256;2023-02-01T10:11:53;24.4;18.4;9.8
74434;PMS7003;62867;52.038;29.256;2023-02-01T10:16:21;26.6;19.8;11.6
74434;PMS7003;62867;52.038;29.256;2023-02-01T10:21:38;28.8;20;12
74434;PMS7003;62867;52.038;29.256;2023-02-01T10:26:38;23.4;18.2;10.6
74434;PMS7003;62867;52.038;29.256;2023-02-01T10:31:43;23.8;19.5;11
74434;PMS7003;62867;52.038;29.256;2023-02-01T10:37:02;24.2;20;11.4
74434;PMS7003;62867;52.038;29.256;2023-02-01T10:41:10;26.8;19.4;12
74434;PMS7003;62867;52.038;29.256;2023-02-01T10:47:04;23.2;17.2;11.2
74434;PMS7003;62867;52.038;29.256;2023-02-01T10:51:39;28.6;21.2;13
74434;PMS7003;62867;52.038;29.256;2023-02-01T10:56:49;29.6;22.4;13
74434;PMS7003;62867;52.038;29.256;2023-02-01T11:01:09;30.2;24.2;13.6
74434;PMS7003;62867;52.038;29.256;2023-02-01T11:06:41;28.8;23.4;14
74434;PMS7003;62867;52.038;29.256;2023-02-01T11:11:25;30.2;22.8;14.2
74434;PMS7003;62867;52.038;29.256;2023-02-01T11:16:47;32.4;25.2;14.6
74434;PMS7003;62867;52.038;29.256;2023-02-01T11:21:48;31.2;24.2;14
74434;PMS7003;62867;52.038;29.256;2023-02-01T11:27:00;29.6;22.2;13.4
74434;PMS7003;62867;52.038;29.256;2023-02-01T11:31:58;28.3;21;10.5
74434;PMS7003;62867;52.038;29.256;2023-02-01T11:36:45;32.2;26.4;14.6
74434;PMS7003;62867;52.038;29.256;2023-02-01T11:42:01;31.6;26.4;15.2
74434;PMS7003;62867;52.038;29.256;2023-02-01T11:46:16;27.2;22;12.6
74434;PMS7003;62867;52.038;29.256;2023-02-01T11:51:50;32;23.2;14
74434;PMS7003;62867;52.038;29.256;2023-02-01T11:56:23;26.4;22;14
74434;PMS7003;62867;52.038;29.256;2023-02-01T12:02:11;27.6;23;13.4
74434;PMS7003;62867;52.038;29.256;2023-02-01T12:06:47;28.6;24.4;14.4
74434;PMS7003;62867;52.038;29.256;2023-02-01T12:12:00;30.8;25;14.4
74434;PMS7003;62867;52.038;29.256;2023-02-01T12:16:12;21.6;18;10.8
74434;PMS7003;62867;52.038;29.256;2023-02-01T12:22:05;22.8;16.2;10.8
74434;PMS7003;62867;52.038;29.256;2023-02-01T12:26:16;22.8;18.6;11.6
74434;PMS7003;62867;52.038;29.256;2023-02-01T12:31:14;23.3;19;11.3
74434;PMS7003;62867;52.038;29.256;2023-02-01T12:36:39;21;16.6;10
74434;PMS7003;62867;52.038;29.256;2023-02-01T12:41:14;22.8;17.8;10.6
74434;PMS7003;62867;52.038;29.256;2023-02-01T12:46:50;20.6;17.4;11.6
74434;PMS7003;62867;52.038;29.256;2023-02-01T12:51:11;22.6;16.6;10.6
74434;PMS7003;62867;52.038;29.256;2023-02-01T12:57:03;22.8;19.6;11
74434;PMS7003;62867;52.038;29.256;2023-02-01T13:01:11;47.2;36;20
74434;PMS7003;62867;52.038;29.256;2023-02-01T13:07:01;32.4;24.8;14
74434;PMS7003;62867;52.038;29.256;2023-02-01T13:11:37;30.8;23.4;14.8
74434;PMS7003;62867;52.038;29.256;2023-02-01T13:16:47;29.2;23.2;14.6
74434;PMS7003;62867;52.038;29.256;2023-02-01T13:21:39;38;30;17.6
74434;PMS7003;62867;52.038;29.256;2023-02-01T13:26:23;52;40;24.4
74434;PMS7003;62867;52.038;29.256;2023-02-01T13:31:26;35.5;28.5;17.3
74434;PMS7003;62867;52.038;29.256;2023-02-01T13:36:14;38.6;31;19.4
74434;PMS7003;62867;52.038;29.256;2023-02-01T13:41:58;35.6;29;18.8
74434;PMS7003;62867;52.038;29.256;2023-02-01T13:46:59;34.6;28.8;18.6
74434;PMS7003;62867;52.038;29.256;2023-02-01T13:51:36;40.4;32.8;20.2
74434;PMS7003;62867;52.038;29.256;2023-02-01T13:56:40;41.6;33.4;21.6
74434;PMS7003;62867;52.038;29.256;2023-02-01T14:02:10;36;28.2;17.4
74434;PMS7003;62867;52.038;29.256;2023-02-01T14:06:37;46.8;34;20.4
74434;PMS7003;62867;52.038;29.256;2023-02-01T14:11:41;41.2;33;20.6
74434;PMS7003;62867;52.038;29.256;2023-02-01T14:17:33;40.6;30.4;18.4
74434;PMS7003;62867;52.038;29.256;2023-02-01T14:21:26;36.8;28.8;17
74434;PMS7003;62867;52.038;29.256;2023-02-01T14:26:19;34.2;27.2;17
74434;PMS7003;62867;52.038;29.256;2023-02-01T14:31:39;41.3;32.5;18.8
74434;PMS7003;62867;52.038;29.256;2023-02-01T14:37:00;35.6;27.4;16.2
74434;PMS7003;62867;52.038;29.256;2023-02-01T14:41:51;37.2;29.8;18
74434;PMS7003;62867;52.038;29.256;2023-02-01T14:47:41;37.4;30;17.8
74434;PMS7003;62867;52.038;29.256;2023-02-01T14:51:59;41.6;33.2;19.8
74434;PMS7003;62867;52.038;29.256;2023-02-01T14:57:01;43.6;33;18.8
74434;PMS7003;62867;52.038;29.256;2023-02-01T15:01:35;36.2;27.6;16.4
74434;PMS7003;62867;52.038;29.256;2023-02-01T15:06:14;34;26.4;16.2
74434;PMS7003;62867;52.038;29.256;2023-02-01T15:11:58;33;27;14.8
74434;PMS7003;62867;52.038;29.256;2023-02-01T15:16:24;31.8;26.4;15.6
74434;PMS7003;62867;52.038;29.256;2023-02-01T15:21:42;37.2;27;15.4
74434;PMS7003;62867;52.038;29.256;2023-02-01T15:26:25;27.4;24;13.8
74434;PMS7003;62867;52.038;29.256;2023-02-01T15:31:46;34;27;15.8
74434;PMS7003;62867;52.038;29.256;2023-02-01T15:36:47;42.5;34.5;19
74434;PMS7003;62867;52.038;29.256;2023-02-01T15:41:10;44.4;33.6;19
74434;PMS7003;62867;52.038;29.256;2023-02-01T15:47:05;46.2;35;20.2
74434;PMS7003;62867;52.038;29.256;2023-02-01T15:51:13;38.2;28;15.2
74434;PMS7003;62867;52.038;29.256;2023-02-01T15:56:49;40.8;32.4;17.8
74434;PMS7003;62867;52.038;29.256;2023-02-01T16:01:25;36.4;28.8;16.2
74434;PMS7003;62867;52.038;29.256;2023-02-01T16:06:50;45.2;32;17.2
74434;PMS7003;62867;52.038;29.256;2023-02-01T16:11:31;51;37.6;20.2
74434;PMS7003;62867;52.038;29.256;2023-02-01T16:16:09;51.8;40;23
74434;PMS7003;62867;52.038;29.256;2023-02-01T16:21:43;53;39.8;23.8
74434;PMS7003;62867;52.038;29.256;2023-02-01T16:26:45;45.8;35.2;21
74434;PMS7003;62867;52.038;29.256;2023-02-01T16:31:59;48.8;36.6;22.2
74434;PMS7003;62867;52.038;29.256;2023-02-01T16:36:33;36.3;29;15.8
74434;PMS7003;62867;52.038;29.256;2023-02-01T16:41:57;34.4;26;15.8
74434;PMS7003;62867;52.038;29.256;2023-02-01T16:46:22;23.8;17;9.8
74434;PMS7003;62867;52.038;29.256;2023-02-01T16:51:35;28.6;23.6;14
74434;PMS7003;62867;52.038;29.256;2023-02-01T16:56:12;42.4;31.8;18.8
74434;PMS7003;62867;52.038;29.256;2023-02-01T17:01:31;28.2;20.2;12
74434;PMS7003;62867;52.038;29.256;2023-02-01T17:06:45;41.2;30.2;17.4
74434;PMS7003;62867;52.038;29.256;2023-02-01T17:11:45;47.8;35.4;18.8
74434;PMS7003;62867;52.038;29.256;2023-02-01T17:16:47;33.4;25.2;14.2
74434;PMS7003;62867;52.038;29.256;2023-02-01T17:21:59;46;33.6;16.6
74434;PMS7003;62867;52.038;29.256;2023-02-01T17:26:57;36.2;26.4;14.6
74434;PMS7003;62867;52.038;29.256;2023-02-01T17:31:34;27.6;21.4;12
74434;PMS7003;62867;52.038;29.256;2023-02-01T17:36:59;29.8;23.5;14.5
74434;PMS7003;62867;52.038;29.256;2023-02-01T17:41:37;30;22.6;11.4
74434;PMS7003;62867;52.038;29.256;2023-02-01T17:46:45;35.6;27.6;15
74434;PMS7003;62867;52.038;29.256;2023-02-01T17:51:12;27;22;11.2
74434;PMS7003;62867;52.038;29.256;2023-02-01T17:56:47;25.8;18.6;10.4
74434;PMS7003;62867;52.038;29.256;2023-02-01T18:01:37;25.6;19.2;11
74434;PMS7003;62867;52.038;29.256;2023-02-01T18:06:59;33;23;12.6
74434;PMS7003;62867;52.038;29.256;2023-02-01T18:11:35;27;20;11.2
74434;PMS7003;62867;52.038;29.256;2023-02-01T18:17:01;18;14.6;8.2
74434;PMS7003;62867;52.038;29.256;2023-02-01T18:21:59;24.8;18;10
74434;PMS7003;62867;52.038;29.256;2023-02-01T18:26:09;25;20.6;12
74434;PMS7003;62867;52.038;29.256;2023-02-01T18:31:33;21.8;17.2;10.2
74434;PMS7003;62867;52.038;29.256;2023-02-01T18:36:10;18;13.5;8.8
74434;PMS7003;62867;52.038;29.256;2023-02-01T18:41:43;19.8;13.4;7.6
74434;PMS7003;62867;52.038;29.256;2023-02-01T18:46:09;16;12.2;7.8
74434;PMS7003;62867;52.038;29.256;2023-02-01T18:51:33;14.2;11.2;7
74434;PMS7003;62867;52.038;29.256;2023-02-01T18:56:35;16.8;11.8;6
74434;PMS7003;62867;52.038;29.256;2023-02-01T19:01:57;17;12.6;7.8
74434;PMS7003;62867;52.038;29.256;2023-02-01T19:06:55;17.6;13.4;7.8
74434;PMS7003;62867;52.038;29.256;2023-02-01T19:11:43;18.6;13.8;8.4
74434;PMS7003;62867;52.038;29.256;2023-02-01T19:16:33;17;14;7.4
74434;PMS7003;62867;52.038;29.256;2023-02-01T19:21:10;21.2;15;8.4
74434;PMS7003;62867;52.038;29.256;2023-02-01T19:26:21;14;12.4;7.8
74434;PMS7003;62867;52.038;29.256;2023-02-01T19:31:23;19.6;13.8;8.8
74434;PMS7003;62867;52.038;29.256;2023-02-01T19:36:59;17;14.3;8.3
74434;PMS7003;62867;52.038;29.256;2023-02-01T19:41:59;24;17.6;9.2
74434;PMS7003;62867;52.038;29.256;2023-02-01T19:46:23;27;19.2;10
74434;PMS7003;62867;52.038;29.256;2023-02-01T19:51:51;18.4;13.4;7.6
74434;PMS7003;62867;52.038;29.256;2023-02-01T19:56:59;19.8;15.2;8.6
74434;PMS7003;62867;52.038;29.256;2023-02-01T20:01:37;19.4;15.2;8.8
74434;PMS7003;62867;52.038;29.256;2023-02-01T20:06:17;24;18;10.4
74434;PMS7003;62867;52.038;29.256;2023-02-01T20:11:43;23.4;17.6;10.8
74434;PMS7003;62867;52.038;29.256;2023-02-01T20:16:19;24.2;18.8;10.6
74434;PMS7003;62867;52.038;29.256;2023-02-01T20:21:21;23.4;17.4;10
74434;PMS7003;62867;52.038;29.256;2023-02-01T20:26:23;22.4;16.8;9.6
74434;PMS7003;62867;52.038;29.256;2023-02-01T20:31:45;21.2;16.2;9.6
74434;PMS7003;62867;52.038;29.256;2023-02-01T20:36:45;20.4;15.2;8.2
74434;PMS7003;62867;52.038;29.256;2023-02-01T20:41:43;22.8;16;8
74434;PMS7003;62867;52.038;29.256;2023-02-01T20:46:59;33.2;24.6;13
74434;PMS7003;62867;52.038;29.256;2023-02-01T20:51:07;28;21.8;12.2
74434;PMS7003;62867;52.038;29.256;2023-02-01T20:56:39;28.6;23.2;12.2
74434;PMS7003;62867;52.038;29.256;2023-02-01T21:01:25;37.6;28.4;14
74434;PMS7003;62867;52.038;29.256;2023-02-01T21:06:47;32.4;23.8;12.8
74434;PMS7003;62867;52.038;29.256;2023-02-01T21:11:43;37;25.2;13.8
74434;PMS7003;62867;52.038;29.256;2023-02-01T21:16:35;44.6;27.6;14.8
74434;PMS7003;62867;52.038;29.256;2023-02-01T21:21:45;38.6;26.6;13.6
74434;PMS7003;62867;52.038;29.256;2023-02-01T21:26:47;27.4;19.8;11.6
74434;PMS7003;62867;52.038;29.256;2023-02-01T21:31:49;27;19.4;12.4
74434;PMS7003;62867;52.038;29.256;2023-02-01T21:36:17;26;20.2;11.4
74434;PMS7003;62867;52.038;29.256;2023-02-01T21:41:59;19.8;18.3;11
74434;PMS7003;62867;52.038;29.256;2023-02-01T21:46:09;23.2;19.2;11.6
74434;PMS7003;62867;52.038;29.256;2023-02-01T21:51:45;21.4;18.4;11.2
74434;PMS7003;62867;52.038;29.256;2023-02-01T21:56:23;21.2;16.4;9.2
74434;PMS7003;62867;52.038;29.256;2023-02-01T22:01:47;22;17.4;10.4
74434;PMS7003;62867;52.038;29.256;2023-02-01T22:06:21;22.6;17.2;10.4
74434;PMS7003;62867;52.038;29.256;2023-02-01T22:11:43;18.4;14.6;8.6
74434;PMS7003;62867;52.038;29.256;2023-02-01T22:16:45;20.8;16.8;10.2
74434;PMS7003;62867;52.038;29.256;2023-02-01T22:22:01;18;13.8;8.4
74434;PMS7003;62867;52.038;29.256;2023-02-01T22:27:01;19.2;13.6;7.8
74434;PMS7003;62867;52.038;29.256;2023-02-01T22:31:31;15;12.6;7.4
74434;PMS7003;62867;52.038;29.256;2023-02-01T22:36:57;17.6;13;7.6
74434;PMS7003;62867;52.038;29.256;2023-02-01T22:41:09;19;13.8;8
74434;PMS7003;62867;52.038;29.256;2023-02-01T22:46:43;17.2;14.6;8.2
74434;PMS7003;62867;52.038;29.256;2023-02-01T22:51:22;19.6;14.8;8.4
74434;PMS7003;62867;52.038;29.256;2023-02-01T22:56:47;18.6;15.2;8.2
74434;PMS7003;62867;52.038;29.256;2023-02-01T23:01:21;20.2;15.2;7.8
74434;PMS7003;62867;52.038;29.256;2023-02-01T23:06:41;19.2;14.2;8.4
74434;PMS7003;62867;52.038;29.256;2023-02-01T23:11:43;18.6;13;8.2
74434;PMS7003;62867;52.038;29.256;2023-02-01T23:16:53;25;14;8
74434;PMS7003;62867;52.038;29.256;2023-02-01T23:21:55;19.3;15.5;9
74434;PMS7003;62867;52.038;29.256;2023-02-01T23:26:17;23;17;9.6
74434;PMS7003;62867;52.038;29.256;2023-02-01T23:31:55;21.2;16.6;9.6
74434;PMS7003;62867;52.038;29.256;2023-02-01T23:36:35;19;13.6;8.2
74434;PMS7003;62867;52.038;29.256;2023-02-01T23:41:41;20.5;15;8.3
74434;PMS7003;62867;52.038;29.256;2023-02-01T23:46:09;18;15.2;9.2
74434;PMS7003;62867;52.038;29.256;2023-02-01T23:51:33;17.4;14.4;8
74434;PMS7003;62867;52.038;29.256;2023-02-01T23:56:35;21;14.6;8.4
